Time;durP1;ratioP1;P1;durP2;ratioP2;P2;SDS_P1;SDS_P2;PMS_P1;PMS_P2;Temp;Humidity;BMP_temperature;BMP_pressure;BME280_temperature;BME280_humidity;BME280_pressure;Samples;Min_cycle;Max_cycle;Signal;HPM_P1;HPM_P2
2023/08/27 00:01:41;;;;;;;5.25;3.72;;;;;;;22.58;47.22;99239.22;10335362;28;20238;-36
2023/08/27 00:06:43;;;;;;;8.45;4.10;;;;;;;22.35;47.31;99235.19;10321166;28;20229;-37
2023/08/27 00:11:45;;;;;;;4.50;3.45;;;;;;;22.28;47.86;99226.47;10337687;28;20229;-37
2023/08/27 00:16:47;;;;;;;7.57;3.97;;;;;;;20.75;49.81;99318.47;10341388;28;20240;-37
2023/08/27 00:21:51;;;;;;;4.78;3.53;;;;;;;22.75;46.81;99235.34;10347065;28;20311;-36
2023/08/27 00:26:53;;;;;;;6.97;3.40;;;;;;;22.48;47.04;99264.59;10348122;28;20369;-37
2023/08/27 00:31:55;;;;;;;4.80;3.60;;;;;;;22.01;48.25;99287.56;10340467;28;20237;-37
2023/08/27 00:36:57;;;;;;;4.43;3.70;;;;;;;21.73;49.09;99278.00;10351279;28;20317;-36
2023/08/27 00:41:58;;;;;;;5.38;3.63;;;;;;;21.77;48.99;99260.84;10338945;28;20802;-37
2023/08/27 00:47:00;;;;;;;5.00;3.65;;;;;;;22.12;48.00;99245.59;10349877;28;20320;-36
2023/08/27 00:52:04;;;;;;;6.55;3.58;;;;;;;21.63;48.45;99248.88;10339738;28;20225;-36
2023/08/27 00:57:06;;;;;;;7.28;4.50;;;;;;;22.07;48.33;99237.44;10346657;28;20249;-37
2023/08/27 01:02:08;;;;;;;7.47;3.90;;;;;;;21.95;48.53;99256.78;10347461;28;20233;-36
2023/08/27 01:07:26;;;;;;;7.03;3.80;;;;;;;21.65;48.83;99265.75;10347734;28;20236;-36
2023/08/27 01:12:39;;;;;;;6.30;3.85;;;;;;;21.64;48.91;99255.13;10340532;28;20355;-37
2023/08/27 01:17:41;;;;;;;7.13;3.30;;;;;;;20.61;50.90;99224.88;10344897;28;20246;-37
2023/08/27 01:22:43;;;;;;;7.00;3.72;;;;;;;20.82;51.20;99183.13;10326527;28;20224;-36
2023/08/27 01:27:53;;;;;;;7.32;4.32;;;;;;;21.07;50.71;99159.81;10341290;28;20226;-36
2023/08/27 01:33:03;;;;;;;5.18;4.07;;;;;;;20.08;51.36;99295.44;10344359;28;20349;-36
2023/08/27 01:38:05;;;;;;;7.45;3.90;;;;;;;20.91;50.69;99202.44;10338834;28;20561;-36
2023/08/27 01:43:07;;;;;;;7.18;3.90;;;;;;;21.05;49.98;99214.47;10337817;28;20229;-37
2023/08/27 01:48:09;;;;;;;7.60;4.47;;;;;;;21.51;49.42;99153.03;10347826;28;20237;-35
2023/08/27 01:53:11;;;;;;;5.60;3.70;;;;;;;21.32;49.40;99137.22;10323001;28;20217;-36
2023/08/27 01:58:13;;;;;;;4.65;3.35;;;;;;;21.69;48.70;99119.00;10336518;28;20209;-35
2023/08/27 02:03:14;;;;;;;7.67;3.87;;;;;;;22.55;47.41;99133.47;10335316;28;20210;-35
2023/08/27 02:08:16;;;;;;;5.40;3.67;;;;;;;21.43;49.08;99206.13;10324639;28;20233;-35
2023/08/27 02:13:18;;;;;;;5.07;4.00;;;;;;;21.88;48.48;99179.97;10335669;28;20240;-35
2023/08/27 02:18:20;;;;;;;4.68;3.50;;;;;;;22.54;47.51;99170.03;10338475;28;20229;-35
2023/08/27 02:23:24;;;;;;;10.07;3.75;;;;;;;22.15;47.94;99182.38;10338415;28;20335;-36
2023/08/27 02:28:27;;;;;;;7.90;4.07;;;;;;;21.32;50.15;99177.22;10341248;28;20315;-36
2023/08/27 02:33:29;;;;;;;6.50;3.63;;;;;;;22.63;47.68;99118.44;10340477;28;20244;-35
2023/08/27 02:38:30;;;;;;;9.05;3.50;;;;;;;23.11;46.25;99148.69;10338520;28;20230;-35
2023/08/27 02:43:32;;;;;;;6.70;3.60;;;;;;;22.23;48.71;99174.72;10338981;28;20233;-35
2023/08/27 02:48:34;;;;;;;4.63;3.65;;;;;;;22.77;47.27;99176.69;10340191;28;20738;-35
2023/08/27 02:53:36;;;;;;;4.93;3.67;;;;;;;22.90;46.78;99181.53;10335533;28;20310;-36
2023/08/27 02:58:38;;;;;;;5.05;3.90;;;;;;;22.58;47.44;99170.28;10336423;28;20231;-35
2023/08/27 03:03:39;;;;;;;6.57;3.90;;;;;;;21.19;50.00;99194.91;10337771;28;20292;-36
2023/08/27 03:08:41;;;;;;;4.90;3.88;;;;;;;21.88;49.52;99130.94;10333745;28;20241;-36
2023/08/27 03:13:43;;;;;;;5.43;3.65;;;;;;;20.48;51.72;99193.56;10337792;28;20234;-36
2023/08/27 03:18:46;;;;;;;6.53;4.53;;;;;;;18.58;56.22;99168.31;10339774;28;20225;-36
2023/08/27 03:23:48;;;;;;;6.20;4.50;;;;;;;19.48;54.25;99135.31;10343126;28;20264;-35
2023/08/27 03:28:50;;;;;;;5.70;4.43;;;;;;;19.62;53.68;99154.75;10335749;28;20228;-35
2023/08/27 03:33:52;;;;;;;6.93;5.10;;;;;;;19.87;52.82;99166.84;10342181;28;20287;-35
2023/08/27 03:38:54;;;;;;;5.93;4.83;;;;;;;21.18;49.81;99157.91;10338489;28;20557;-35
2023/08/27 03:43:56;;;;;;;6.97;4.47;;;;;;;22.15;48.58;99125.16;10336019;28;20330;-35
2023/08/27 03:49:01;;;;;;;5.03;4.05;;;;;;;22.73;47.44;99132.00;10349939;28;20236;-35
2023/08/27 03:54:03;;;;;;;4.95;4.10;;;;;;;22.68;47.24;99179.19;10333931;28;20438;-36
2023/08/27 03:59:05;;;;;;;8.30;4.05;;;;;;;22.76;47.28;99172.34;10351071;28;20237;-36
2023/08/27 04:04:07;;;;;;;5.43;4.13;;;;;;;21.93;48.84;99176.41;10347322;28;20237;-36
2023/08/27 04:09:08;;;;;;;5.63;3.90;;;;;;;22.35;47.93;99169.78;10350805;28;20237;-37
2023/08/27 04:14:10;;;;;;;4.68;4.05;;;;;;;23.15;46.05;99143.50;10346036;28;20531;-35
2023/08/27 04:19:12;;;;;;;7.60;3.58;;;;;;;23.10;46.42;99127.19;10345427;28;20240;-35
2023/08/27 04:24:14;;;;;;;4.93;3.78;;;;;;;23.25;46.17;99130.59;10344681;28;20307;-35
2023/08/27 04:29:18;;;;;;;4.88;3.50;;;;;;;23.04;46.54;99120.88;10325093;28;20239;-36
2023/08/27 04:34:19;;;;;;;4.97;3.58;;;;;;;22.17;48.14;99171.22;10346858;28;20391;-35
2023/08/27 04:39:22;;;;;;;6.95;3.88;;;;;;;22.41;47.80;99156.97;10347039;28;20661;-35
2023/08/27 04:44:26;;;;;;;5.72;3.60;;;;;;;22.38;47.91;99152.88;10346853;28;20230;-36
2023/08/27 04:49:27;;;;;;;5.82;4.10;;;;;;;21.94;48.14;99187.03;10343816;28;20738;-36
2023/08/27 04:54:29;;;;;;;4.70;4.20;;;;;;;21.69;48.50;99220.53;10340870;28;20746;-36
2023/08/27 04:59:31;;;;;;;6.80;4.10;;;;;;;21.97;48.75;99110.25;10342099;28;20233;-35
2023/08/27 05:04:33;;;;;;;4.55;3.75;;;;;;;22.14;47.95;99164.41;10339447;28;20387;-36
2023/08/27 05:09:34;;;;;;;5.97;4.32;;;;;;;21.75;48.74;99110.53;10349323;28;20233;-35
2023/08/27 05:14:36;;;;;;;6.85;4.68;;;;;;;21.12;50.63;99083.66;10347148;28;24940;-36
2023/08/27 05:19:38;;;;;;;5.67;4.07;;;;;;;20.60;50.48;99194.16;10342705;28;20225;-35
2023/08/27 05:24:40;;;;;;;7.60;4.07;;;;;;;21.57;49.21;99114.66;10341199;28;20225;-36
2023/08/27 05:29:42;;;;;;;6.28;4.20;;;;;;;21.24;49.84;99095.06;10344196;28;20237;-35
2023/08/27 05:34:43;;;;;;;7.70;4.13;;;;;;;21.31;49.34;99141.03;10334866;28;20586;-36
2023/08/27 05:39:45;;;;;;;9.13;4.40;;;;;;;22.28;48.02;99062.97;10338390;28;20225;-35
2023/08/27 05:44:47;;;;;;;6.78;4.00;;;;;;;19.55;53.08;99175.81;10339326;28;20281;-35
2023/08/27 05:49:48;;;;;;;5.90;4.00;;;;;;;20.21;52.31;99096.75;10325547;28;20598;-36
2023/08/27 05:54:50;;;;;;;5.13;3.90;;;;;;;20.38;51.76;99107.41;10339149;28;20315;-35
2023/08/27 05:59:52;;;;;;;6.57;4.23;;;;;;;21.08;51.07;99054.53;10349061;28;20225;-35
2023/08/27 06:04:54;;;;;;;5.73;4.73;;;;;;;19.80;53.42;99164.34;10342671;28;20796;-36
2023/08/27 06:09:56;;;;;;;5.80;4.40;;;;;;;20.52;51.82;99115.88;10345357;28;20237;-35
2023/08/27 06:14:57;;;;;;;6.50;4.77;;;;;;;21.49;49.35;99176.97;10342151;28;20237;-35
2023/08/27 06:19:59;;;;;;;4.90;4.10;;;;;;;21.01;51.42;99096.41;10337260;28;20262;-35
2023/08/27 06:25:01;;;;;;;6.20;4.18;;;;;;;20.55;51.47;99172.41;10339656;28;20233;-35
2023/08/27 06:30:05;;;;;;;7.33;4.83;;;;;;;19.23;54.54;99221.91;10320218;28;20335;-36
2023/08/27 06:35:09;;;;;;;5.43;4.90;;;;;;;20.52;52.16;99124.00;10336263;28;20303;-35
2023/08/27 06:40:13;;;;;;;9.33;7.00;;;;;;;18.50;56.84;99149.81;10345026;28;20239;-35
2023/08/27 06:45:15;;;;;;;14.23;8.47;;;;;;;19.94;53.99;99084.09;10339884;28;20253;-45
2023/08/27 06:50:17;;;;;;;10.87;8.40;;;;;;;19.55;52.74;99249.06;10338138;28;20229;-35
2023/08/27 06:55:18;;;;;;;11.53;8.93;;;;;;;20.71;51.82;99189.56;10343804;28;20237;-35
2023/08/27 07:00:20;;;;;;;10.13;7.57;;;;;;;20.88;51.98;99126.03;10326778;28;20350;-35
2023/08/27 07:05:23;;;;;;;8.80;7.75;;;;;;;20.21;52.34;99186.38;10343117;28;20229;-35
2023/08/27 07:10:25;;;;;;;10.57;7.68;;;;;;;21.08;52.08;99065.41;10336849;28;20887;-35
2023/08/27 07:15:27;;;;;;;7.90;7.10;;;;;;;23.28;47.83;99041.88;10351293;28;20251;-36
2023/08/27 07:20:29;;;;;;;10.23;7.37;;;;;;;20.75;51.61;99177.09;10345873;28;20247;-35
2023/08/27 07:25:33;;;;;;;9.50;6.65;;;;;;;22.37;49.62;99095.91;10346029;28;20722;-36
2023/08/27 07:30:36;;;;;;;9.00;6.80;;;;;;;20.48;52.50;99226.16;10302526;28;20237;-36
2023/08/27 07:35:38;;;;;;;7.93;6.28;;;;;;;22.06;49.46;99188.66;10302503;28;25157;-35
2023/08/27 07:40:40;;;;;;;8.00;6.15;;;;;;;22.23;50.02;99151.00;10302872;28;20372;-35
2023/08/27 07:45:42;;;;;;;7.43;6.18;;;;;;;22.09;50.16;99169.06;10300535;28;20685;-36
2023/08/27 07:50:44;;;;;;;6.78;6.03;;;;;;;22.55;49.56;99129.94;10339387;23;20245;-40
2023/08/27 07:55:45;;;;;;;9.65;6.50;;;;;;;23.06;48.15;99127.75;10333840;28;20660;-40
2023/08/27 08:00:47;;;;;;;7.60;5.78;;;;;;;21.75;50.64;99202.31;10340345;28;20289;-40
2023/08/27 08:05:49;;;;;;;8.27;6.22;;;;;;;22.78;48.80;99153.78;10343020;28;20522;-41
2023/08/27 08:10:55;;;;;;;6.53;5.47;;;;;;;22.10;49.53;99236.88;10338493;28;20311;-40
2023/08/27 08:15:58;;;;;;;5.65;5.00;;;;;;;22.53;49.01;99192.91;10337974;28;20260;-40
2023/08/27 08:21:00;;;;;;;6.53;5.05;;;;;;;21.58;50.15;99260.56;10335496;28;20230;-44
2023/08/27 08:26:02;;;;;;;7.82;4.68;;;;;;;21.03;51.48;99259.31;10322158;28;20245;-39
2023/08/27 08:31:03;;;;;;;5.78;5.18;;;;;;;21.70;50.55;99230.34;10338448;28;20320;-43
2023/08/27 08:36:05;;;;;;;6.50;4.63;;;;;;;21.85;50.65;99188.69;10339648;28;20243;-39
2023/08/27 08:41:10;;;;;;;7.28;4.70;;;;;;;22.27;49.43;99195.69;10334135;28;20719;-39
2023/08/27 08:46:13;;;;;;;6.47;4.80;;;;;;;22.27;48.99;99217.50;10336727;28;20249;-41
2023/08/27 08:51:22;;;;;;;5.60;4.22;;;;;;;22.04;49.05;99257.03;10339691;28;20324;-42
2023/08/27 08:56:31;;;;;;;5.28;4.70;;;;;;;22.68;48.71;99222.03;10335315;28;20241;-39
2023/08/27 09:01:35;;;;;;;6.68;4.10;;;;;;;21.57;50.33;99274.44;10337290;28;20319;-40
2023/08/27 09:06:37;;;;;;;5.78;4.50;;;;;;;21.92;49.82;99243.69;10335476;28;20240;-41
2023/08/27 09:11:40;;;;;;;7.30;3.90;;;;;;;21.40;50.67;99223.78;10339211;28;20288;-40
2023/08/27 09:16:42;;;;;;;4.95;3.60;;;;;;;23.04;48.01;99176.28;10336650;28;20343;-40
2023/08/27 09:21:44;;;;;;;5.43;3.58;;;;;;;22.37;48.18;99194.84;10336768;28;20806;-40
2023/08/27 09:26:46;;;;;;;7.60;3.90;;;;;;;22.88;47.60;99144.75;10333083;28;20236;-41
2023/08/27 09:31:48;;;;;;;6.30;3.72;;;;;;;23.28;46.71;99145.59;10332396;28;20344;-40
2023/08/27 09:36:51;;;;;;;5.90;3.25;;;;;;;22.71;47.62;99180.56;10327901;28;20681;-40
2023/08/27 09:41:56;;;;;;;4.53;3.15;;;;;;;23.31;46.75;99150.47;10333329;28;20375;-39
2023/08/27 09:47:05;;;;;;;4.18;3.10;;;;;;;23.23;46.38;99195.56;10333714;28;20242;-40
2023/08/27 09:52:07;;;;;;;4.00;3.45;;;;;;;24.48;45.03;99106.66;10340582;28;20240;-40
2023/08/27 09:57:16;;;;;;;4.38;3.60;;;;;;;22.37;48.41;99227.56;10336871;28;20589;-40
2023/08/27 10:02:19;;;;;;;5.10;3.53;;;;;;;23.29;47.18;99160.03;10332718;28;20331;-40
2023/08/27 10:07:21;;;;;;;5.60;3.95;;;;;;;22.97;47.07;99219.41;10316283;28;20225;-40
2023/08/27 10:12:24;;;;;;;4.85;3.30;;;;;;;23.32;47.30;99163.00;10335077;28;20225;-39
2023/08/27 10:17:26;;;;;;;6.63;3.55;;;;;;;22.74;48.10;99215.47;10328789;28;20233;-40
2023/08/27 10:22:28;;;;;;;3.85;3.38;;;;;;;23.01;47.50;99193.22;10345347;28;20404;-41
2023/08/27 10:27:32;;;;;;;6.90;3.60;;;;;;;23.66;46.53;99104.06;10335104;28;20252;-40
2023/08/27 10:32:34;;;;;;;3.33;3.03;;;;;;;23.09;46.78;99194.56;10328572;28;20394;-41
2023/08/27 10:37:39;;;;;;;4.20;3.08;;;;;;;22.79;47.13;99239.97;10334060;28;20247;-40
2023/08/27 10:42:42;;;;;;;5.45;3.22;;;;;;;23.56;46.85;99175.91;10319123;28;20239;-39
2023/08/27 10:48:05;;;;;;;4.15;3.15;;;;;;;22.57;47.36;99188.56;10333470;28;21543;-42
2023/08/27 10:53:07;;;;;;;4.35;3.42;;;;;;;23.29;46.30;99166.31;10326155;28;20284;-40
2023/08/27 10:58:17;;;;;;;9.63;3.60;;;;;;;23.20;46.37;99184.41;10330272;28;20233;-39
2023/08/27 11:06:41;;;;;;;4.18;3.13;;;;;;;20.25;52.66;99097.03;10576231;27;20323;-73
2023/08/27 11:11:44;;;;;;;4.28;3.10;;;;;;;20.06;53.45;99069.50;10488818;28;20231;-74
2023/08/27 11:16:53;;;;;;;4.50;3.33;;;;;;;20.85;51.78;99071.13;10493178;28;20330;-73
2023/08/27 11:22:09;;;;;;;3.67;2.90;;;;;;;21.13;50.52;99098.84;10461195;23;20242;-89
2023/08/27 11:27:14;;;;;;;5.38;3.15;;;;;;;20.49;52.21;99098.19;10443724;28;20276;-88
2023/08/27 11:32:17;;;;;;;3.78;2.88;;;;;;;19.95;52.39;99131.88;10455804;28;20561;-89
2023/08/27 11:37:20;;;;;;;4.10;3.08;;;;;;;21.59;49.70;99076.25;10443786;28;20652;-89
2023/08/27 11:42:22;;;;;;;5.15;2.63;;;;;;;20.18;52.79;99161.66;10448572;28;20231;-88
2023/08/27 11:47:24;;;;;;;3.28;2.75;;;;;;;21.26;51.27;99113.03;10448020;28;20235;-88
2023/08/27 11:52:26;;;;;;;6.50;2.83;;;;;;;21.60;50.34;99096.97;10453092;28;20701;-88
2023/08/27 11:57:28;;;;;;;4.15;2.63;;;;;;;21.50;50.73;99095.06;10439068;28;20669;-88
2023/08/27 12:02:29;;;;;;;3.08;2.72;;;;;;;20.53;51.28;99166.44;10439762;28;20236;-88
2023/08/27 12:07:34;;;;;;;6.90;2.70;;;;;;;21.06;51.19;99133.69;10442544;28;20764;-89
2023/08/27 12:12:40;;;;;;;5.72;2.92;;;;;;;20.90;51.89;99116.50;10438448;28;20244;-89
2023/08/27 12:17:42;;;;;;;2.40;2.15;;;;;;;20.31;49.73;99212.75;10416695;28;20247;-90
2023/08/27 12:22:45;;;;;;;2.65;2.00;;;;;;;21.36;47.72;99132.91;10411153;28;20236;-88
2023/08/27 12:27:47;;;;;;;2.80;1.75;;;;;;;21.10;46.96;99208.19;10408163;28;20302;-88
2023/08/27 12:32:54;;;;;;;2.78;1.80;;;;;;;19.54;49.05;99237.41;10411706;28;20262;-88
2023/08/27 12:37:57;;;;;;;4.05;1.77;;;;;;;20.23;48.29;99178.78;10414265;28;20592;-87
2023/08/27 12:42:59;;;;;;;1.90;1.70;;;;;;;20.58;48.81;99223.53;10392044;28;20312;-88
2023/08/27 12:48:04;;;;;;;2.58;2.00;;;;;;;21.98;47.25;99135.56;10374816;28;20240;-88
2023/08/27 12:53:06;;;;;;;3.35;1.70;;;;;;;21.21;48.10;99192.72;10377357;28;20221;-88
2023/08/27 12:58:08;;;;;;;1.52;1.42;;;;;;;20.47;48.67;99224.53;10384465;28;20251;-88
2023/08/27 13:03:10;;;;;;;2.85;1.80;;;;;;;21.15;46.93;99183.72;10372800;28;20282;-87
2023/08/27 13:08:12;;;;;;;2.15;1.90;;;;;;;20.80;48.29;99223.38;10393160;28;20317;-88
2023/08/27 13:13:15;;;;;;;1.80;1.55;;;;;;;20.44;47.73;99263.91;10410218;28;20224;-87
2023/08/27 13:18:19;;;;;;;2.53;1.52;;;;;;;19.07;47.47;99332.13;10410690;28;20637;-88
2023/08/27 13:23:23;;;;;;;3.35;1.63;;;;;;;20.13;47.06;99263.69;10391868;28;20645;-87
2023/08/27 13:28:26;;;;;;;1.83;1.73;;;;;;;19.46;47.17;99270.44;10376516;28;20236;-87
2023/08/27 13:33:27;;;;;;;1.80;1.70;;;;;;;19.01;48.73;99249.88;10373244;28;20249;-89
2023/08/27 13:38:29;;;;;;;1.63;1.52;;;;;;;18.69;48.61;99298.50;10371337;28;20763;-89
2023/08/27 13:43:31;;;;;;;1.60;1.50;;;;;;;19.88;47.61;99255.38;10368944;28;20366;-88
2023/08/27 13:48:33;;;;;;;1.60;1.50;;;;;;;21.06;46.47;99174.47;10375026;28;20243;-88
2023/08/27 13:53:35;;;;;;;1.63;1.52;;;;;;;20.29;46.58;99214.94;10371393;28;20312;-89
2023/08/27 13:58:37;;;;;;;1.73;1.45;;;;;;;20.32;45.84;99257.88;10370550;28;20229;-88
2023/08/27 14:03:39;;;;;;;1.83;1.48;;;;;;;19.65;47.03;99283.66;10383254;28;20706;-88
2023/08/27 14:08:41;;;;;;;1.88;1.52;;;;;;;20.10;46.36;99211.81;10398622;28;20275;-89
2023/08/27 14:13:44;;;;;;;4.32;1.50;;;;;;;19.51;47.57;99210.78;10402973;28;20244;-89
2023/08/27 14:18:46;;;;;;;3.00;1.65;;;;;;;20.95;45.81;99138.31;10398234;28;20228;-89
2023/08/27 14:23:50;;;;;;;2.35;1.63;;;;;;;20.94;45.88;99193.75;10379664;28;20228;-88
2023/08/27 14:28:52;;;;;;;1.63;1.50;;;;;;;20.45;46.54;99224.81;10363636;28;20299;-88
2023/08/27 14:33:54;;;;;;;1.77;1.40;;;;;;;19.87;47.75;99289.00;10362070;28;20236;-88
2023/08/27 14:38:56;;;;;;;2.35;1.60;;;;;;;19.66;47.88;99283.41;10360423;28;20324;-88
2023/08/27 14:43:57;;;;;;;2.40;1.48;;;;;;;20.37;47.40;99194.59;10364855;28;20220;-88
2023/08/27 14:48:59;;;;;;;2.38;1.90;;;;;;;21.09;46.59;99220.19;10478172;28;20280;-88
2023/08/27 14:54:01;;;;;;;1.73;1.63;;;;;;;20.90;47.01;99214.41;10473126;28;20602;-88
2023/08/27 14:59:24;;;;;;;2.13;1.60;;;;;;;20.68;47.44;99209.13;10478139;28;20219;-89
2023/08/27 15:04:26;;;;;;;1.55;1.40;;;;;;;20.56;47.55;99219.41;10471849;28;20249;-88
2023/08/27 15:09:30;;;;;;;4.78;1.88;;;;;;;20.95;47.05;99186.41;10471119;28;20235;-88
2023/08/27 15:14:32;;;;;;;1.90;1.55;;;;;;;20.21;48.55;99250.72;10470527;28;20227;-88
2023/08/27 15:19:34;;;;;;;1.73;1.40;;;;;;;19.31;49.63;99317.19;10487507;28;20383;-87
2023/08/27 15:24:36;;;;;;;1.50;1.40;;;;;;;20.84;47.46;99185.56;10475204;28;20238;-88
2023/08/27 15:29:38;;;;;;;1.75;1.40;;;;;;;20.25;49.44;99241.00;10476018;28;20254;-88
2023/08/27 15:34:40;;;;;;;1.73;1.50;;;;;;;20.59;48.66;99192.53;10471343;28;20230;-87
2023/08/27 15:39:42;;;;;;;4.03;1.90;;;;;;;20.88;48.03;99207.63;10477290;28;20376;-88
2023/08/27 15:44:44;;;;;;;1.80;1.50;;;;;;;20.58;48.37;99223.53;10471109;28;20223;-88
2023/08/27 15:49:46;;;;;;;2.25;1.50;;;;;;;20.37;49.31;99183.75;10478949;28;20317;-89
2023/08/27 15:54:48;;;;;;;2.70;1.60;;;;;;;19.77;50.38;99238.16;10485262;28;20770;-88
2023/08/27 15:59:50;;;;;;;2.33;1.60;;;;;;;19.91;49.39;99238.56;10479957;28;20763;-88
2023/08/27 16:04:51;;;;;;;1.77;1.30;;;;;;;20.38;49.26;99179.91;10474355;28;20223;-88
2023/08/27 16:09:53;;;;;;;2.15;1.42;;;;;;;20.09;49.50;99232.72;10482870;28;20234;-88
2023/08/27 16:14:55;;;;;;;1.40;1.30;;;;;;;20.27;48.90;99225.25;10483817;28;20673;-88
2023/08/27 16:19:57;;;;;;;2.55;1.40;;;;;;;20.62;48.46;99200.16;10475507;28;20780;-87
2023/08/27 16:24:59;;;;;;;2.17;1.45;;;;;;;19.71;49.12;99267.16;10477817;28;20230;-88
2023/08/27 16:30:00;;;;;;;1.48;1.38;;;;;;;20.35;48.23;99237.53;10480735;28;20226;-89
2023/08/27 16:35:02;;;;;;;3.17;1.85;;;;;;;20.29;49.18;99229.34;10478695;28;20231;-90
2023/08/27 16:40:05;;;;;;;1.30;1.20;;;;;;;20.00;50.73;99236.19;10493338;28;20321;-89
2023/08/27 16:45:07;;;;;;;1.88;1.40;;;;;;;20.07;50.30;99262.00;10471220;28;20707;-89
2023/08/27 16:50:09;;;;;;;1.42;1.33;;;;;;;19.93;50.51;99256.22;10476090;28;20235;-88
2023/08/27 16:55:11;;;;;;;2.38;1.58;;;;;;;19.85;50.38;99277.59;10479547;28;20238;-89
2023/08/27 17:00:13;;;;;;;2.25;1.60;;;;;;;20.13;49.67;99268.31;10479565;28;20569;-88
2023/08/27 17:05:15;;;;;;;2.85;1.70;;;;;;;20.09;49.85;99264.47;10476029;28;20718;-89
2023/08/27 17:10:18;;;;;;;1.50;1.40;;;;;;;19.67;50.63;99286.94;10471695;28;20223;-89
2023/08/27 17:15:20;;;;;;;1.30;1.20;;;;;;;19.76;50.38;99260.97;10474836;28;20235;-89
2023/08/27 17:20:23;;;;;;;2.15;1.30;;;;;;;20.85;48.58;99163.56;10475929;28;20239;-89
2023/08/27 17:25:24;;;;;;;1.23;1.23;;;;;;;20.27;49.54;99225.25;10467880;23;20322;-36
2023/08/27 17:30:26;;;;;;;2.28;1.30;;;;;;;19.68;50.32;99300.25;10459746;28;20871;-36
2023/08/27 17:35:28;;;;;;;2.35;1.55;;;;;;;20.27;49.50;99220.63;10458770;28;20236;-36
2023/08/27 17:40:30;;;;;;;3.10;1.85;;;;;;;20.43;48.54;99254.16;10461987;28;20234;-36
2023/08/27 17:45:33;;;;;;;1.60;1.40;;;;;;;20.20;49.00;99289.84;10452864;28;20719;-37
2023/08/27 17:50:36;;;;;;;2.20;1.30;;;;;;;19.87;49.30;99287.13;10460778;28;20334;-36
2023/08/27 17:55:38;;;;;;;3.33;1.52;;;;;;;19.47;50.35;99274.78;10453002;28;20329;-37
2023/08/27 18:00:39;;;;;;;2.28;1.98;;;;;;;19.84;50.12;99260.50;10445894;28;20235;-36
2023/08/27 18:05:41;;;;;;;2.45;1.50;;;;;;;19.57;51.00;99285.78;10463830;28;20284;-36
2023/08/27 18:10:43;;;;;;;2.85;1.67;;;;;;;20.07;50.23;99245.72;10447113;28;20334;-37
2023/08/27 18:15:46;;;;;;;1.63;1.25;;;;;;;19.47;51.46;99334.47;10468459;28;20318;-37
2023/08/27 18:20:49;;;;;;;2.63;1.58;;;;;;;19.41;51.81;99312.97;10458329;28;20262;-37
2023/08/27 18:25:51;;;;;;;2.55;1.50;;;;;;;18.56;52.99;99384.50;10454740;28;20246;-36
2023/08/27 18:30:55;;;;;;;1.90;1.70;;;;;;;19.29;51.59;99334.81;10443855;28;20712;-37
2023/08/27 18:35:57;;;;;;;3.42;2.20;;;;;;;19.65;50.61;99327.09;10455685;28;20551;-36
2023/08/27 18:40:59;;;;;;;1.88;1.67;;;;;;;19.16;51.76;99328.69;10452711;28;20738;-37
2023/08/27 18:46:01;;;;;;;2.60;1.50;;;;;;;19.50;50.71;99323.13;10457679;28;20255;-36
2023/08/27 18:51:03;;;;;;;3.88;1.80;;;;;;;19.10;51.44;99375.81;10440833;28;20281;-36
2023/08/27 18:56:05;;;;;;;2.58;1.83;;;;;;;19.77;50.75;99306.03;10453980;28;20289;-37
2023/08/27 19:01:09;;;;;;;2.15;1.98;;;;;;;18.69;52.15;99405.00;10454814;28;20235;-36
2023/08/27 19:06:27;;;;;;;2.03;1.60;;;;;;;20.30;49.76;99314.38;10458475;28;20332;-36
2023/08/27 19:11:29;;;;;;;2.20;1.85;;;;;;;18.67;52.76;99401.72;10453368;28;20256;-36
2023/08/27 19:16:31;;;;;;;2.67;1.75;;;;;;;18.95;51.77;99368.28;10457285;28;20262;-37
2023/08/27 19:21:32;;;;;;;1.80;1.70;;;;;;;18.49;52.41;99431.78;10454131;28;20306;-37
2023/08/27 19:26:35;;;;;;;3.05;1.67;;;;;;;18.59;52.40;99404.84;10425151;28;20243;-36
2023/08/27 19:31:37;;;;;;;2.53;1.70;;;;;;;18.21;53.27;99422.63;10417241;28;20338;-36
2023/08/27 19:36:48;;;;;;;2.00;1.70;;;;;;;18.98;51.71;99345.28;10424591;28;20232;-36
2023/08/27 19:41:50;;;;;;;2.77;1.63;;;;;;;17.98;52.90;99472.28;10416697;28;20235;-36
2023/08/27 19:46:52;;;;;;;2.00;1.73;;;;;;;18.23;52.35;99429.44;10420974;28;20274;-36
2023/08/27 19:51:54;;;;;;;2.57;1.83;;;;;;;18.64;51.95;99384.09;10420691;28;20244;-36
2023/08/27 19:56:56;;;;;;;1.60;1.50;;;;;;;18.15;52.64;99432.53;10421362;28;20232;-36
2023/08/27 20:01:58;;;;;;;4.17;1.80;;;;;;;19.85;49.72;99321.03;10418970;28;20301;-36
2023/08/27 20:07:00;;;;;;;2.17;1.73;;;;;;;19.82;49.58;99379.38;10424324;28;20281;-36
2023/08/27 20:12:02;;;;;;;5.47;1.70;;;;;;;19.85;49.53;99405.19;10418950;28;20651;-36
2023/08/27 20:17:04;;;;;;;2.43;1.50;;;;;;;19.32;50.65;99443.63;10406222;28;20228;-36
2023/08/27 20:22:06;;;;;;;1.70;1.53;;;;;;;18.58;52.16;99469.06;10414018;28;20227;-36
2023/08/27 20:27:07;;;;;;;1.67;1.57;;;;;;;18.29;52.70;99492.69;10416618;28;20235;-36
2023/08/27 20:32:09;;;;;;;1.60;1.50;;;;;;;19.22;51.51;99386.53;10418895;28;20260;-36
2023/08/27 20:37:11;;;;;;;1.70;1.60;;;;;;;17.92;54.29;99457.84;10414750;28;20641;-36
2023/08/27 20:42:13;;;;;;;3.57;2.20;;;;;;;18.32;53.32;99421.78;10419304;28;20315;-36
2023/08/27 20:47:15;;;;;;;3.07;2.10;;;;;;;18.64;52.74;99388.66;10420400;28;20500;-36
2023/08/27 20:52:16;;;;;;;2.85;2.00;;;;;;;18.33;53.01;99438.84;10419302;28;20334;-36
2023/08/27 20:57:18;;;;;;;2.93;2.00;;;;;;;18.26;53.57;99441.69;10424048;28;20286;-36
2023/08/27 21:02:20;;;;;;;3.57;1.90;;;;;;;17.86;53.68;99508.34;10412637;28;20601;-36
2023/08/27 21:07:22;;;;;;;2.57;2.13;;;;;;;17.62;54.31;99514.84;10422900;28;20285;-37
2023/08/27 21:12:24;;;;;;;3.80;1.80;;;;;;;18.36;53.82;99397.72;10421900;28;20227;-36
2023/08/27 21:17:26;;;;;;;5.33;1.97;;;;;;;18.51;53.01;99448.59;10417231;28;20232;-36
2023/08/27 21:22:31;;;;;;;2.30;2.10;;;;;;;18.10;54.18;99449.53;10418605;28;20239;-36
2023/08/27 21:27:32;;;;;;;1.77;1.67;;;;;;;18.08;53.83;99454.38;10462699;28;20903;-36
2023/08/27 21:32:35;;;;;;;2.33;1.80;;;;;;;19.09;52.43;99371.44;10461956;28;20317;-36
2023/08/27 21:37:39;;;;;;;1.77;1.67;;;;;;;18.71;52.92;99415.59;10462053;28;20235;-36
2023/08/27 21:42:41;;;;;;;4.40;2.10;;;;;;;18.73;52.51;99475.81;10460606;28;20337;-36
2023/08/27 21:47:43;;;;;;;2.70;2.10;;;;;;;19.17;51.93;99425.25;10459238;28;20840;-36
2023/08/27 21:52:46;;;;;;;2.30;2.10;;;;;;;18.83;52.87;99460.53;10458884;28;20216;-36
2023/08/27 21:57:53;;;;;;;3.93;2.30;;;;;;;18.28;53.76;99477.44;10455821;28;20231;-37
2023/08/27 22:02:56;;;;;;;2.50;2.30;;;;;;;18.21;53.98;99490.31;10457082;28;20212;-36
2023/08/27 22:07:58;;;;;;;3.20;2.07;;;;;;;18.61;52.84;99449.63;10458049;28;20305;-36
2023/08/27 22:13:02;;;;;;;2.90;2.00;;;;;;;19.16;52.64;99401.09;10439161;28;20235;-36
2023/08/27 22:18:04;;;;;;;2.83;2.20;;;;;;;19.11;52.32;99439.81;10445158;28;20273;-36
2023/08/27 22:23:06;;;;;;;4.13;2.17;;;;;;;18.88;52.38;99486.91;10456255;28;20246;-36
2023/08/27 22:28:08;;;;;;;2.43;2.23;;;;;;;19.36;51.29;99450.19;10456925;28;20235;-36
2023/08/27 22:33:09;;;;;;;4.30;2.60;;;;;;;17.87;54.19;99530.81;10453083;28;20227;-36
2023/08/27 22:38:12;;;;;;;2.70;2.50;;;;;;;19.05;52.73;99431.84;10456640;28;20234;-36
2023/08/27 22:43:14;;;;;;;3.60;2.50;;;;;;;19.25;52.17;99409.63;10457607;28;20238;-36
2023/08/27 22:48:16;;;;;;;2.33;2.13;;;;;;;19.12;52.34;99456.91;10458395;28;20231;-36
2023/08/27 22:53:18;;;;;;;3.53;2.70;;;;;;;19.33;51.30;99482.41;10456632;28;20727;-36
2023/08/27 22:58:20;;;;;;;3.13;2.40;;;;;;;19.17;51.80;99513.94;10457352;28;20228;-36
2023/08/27 23:03:22;;;;;;;2.83;2.58;;;;;;;18.56;53.26;99516.47;10456246;28;20233;-36
2023/08/27 23:08:25;;;;;;;3.13;2.27;;;;;;;18.82;52.47;99483.28;10458988;28;20261;-36
2023/08/27 23:13:26;;;;;;;2.80;2.40;;;;;;;18.50;54.02;99460.53;10455623;28;20256;-36
2023/08/27 23:18:28;;;;;;;4.23;2.23;;;;;;;17.95;54.43;99526.91;10457317;28;20318;-36
2023/08/27 23:23:30;;;;;;;3.17;2.83;;;;;;;18.18;53.56;99523.31;10441036;28;20352;-36
2023/08/27 23:28:32;;;;;;;2.67;2.40;;;;;;;17.26;55.70;99533.81;10417226;28;20717;-36